Startpagina
METAR-TAF:

METAR-TAF

Vliegvelden :

Geilenkirchen, Duitsland

breedte: 50-57-39N, lengte: 006-2-33E, hoogte: 90 m

Actueel weer

Dit bericht is 36 minuten geleden gemaakt, om 10:50 UTC
Wind 8 kt uit het oosten
Temperatuur 6°C
Vochtigheid 75%
Druk 1017 hPa
Zicht 10 km of meer
Weinig wolken op 1500 ft

METAR: ETNG 201050Z 10008KT 9999 FEW015 06/02 Q1017 NOSIG

Tijdstip: 12:26 (11:26 UTC)

Verwachting

Dit bericht is 3 uur en het 26 minuten geleden gemaakt, om 08:00 UTC
Verwachting geldig van 20 om 09 UTC tot 20 om 24 UTC
Wind 5 kt uit het oostzuidoosten
Zicht 10 km of meer
geen wolken onder 1500 m en geen cumulonimbus
Kans 30% :
Tijdelijke
van 20 om 11 UTC tot 20 om 15 UTC
Wind 10 kt uit het oostzuidoosten met uitschieters tot 17 kt

TAF: ETNG 200800Z 2009/2024 11005KT CAVOK PROB30 TEMPO 2011/2015 12010G17KT

Waarnemingen en weersverwachtingen van meer dan 4000 vliegvelden (METAR en TAF).

De beschikbare stations zijn de gele en rode punten op de kaart.

Ga met uw muis naar het station om de naam te zien.

Klik dan om waarnemingen en weersverwachtingen te zien.

kaart wijzigen: klik op de groene knoppen met een zwart kruis om in te zoomen, op de groene knop met een streepje om uit te zoomen of op de groene pijlen voor aangrenzende kaarten.


METAR-TAF: